createdAt,value
2023-05-23T00:01:55.332Z,16.86
2023-05-23T00:04:27.451Z,16.82
2023-05-23T00:06:55.208Z,16.77
2023-05-23T00:09:22.917Z,16.73
2023-05-23T00:11:50.671Z,16.68
2023-05-23T00:14:18.650Z,16.65
2023-05-23T00:16:46.963Z,16.61
2023-05-23T00:19:17.609Z,16.58
2023-05-23T00:21:49.932Z,16.57
2023-05-23T00:24:20.723Z,16.54
2023-05-23T00:26:48.492Z,16.52
2023-05-23T00:29:16.972Z,16.50
2023-05-23T00:31:47.606Z,16.48
2023-05-23T00:34:15.833Z,16.45
2023-05-23T00:36:44.072Z,16.44
2023-05-23T00:39:19.805Z,16.42
2023-05-23T00:41:52.940Z,16.40
2023-05-23T00:44:22.096Z,16.39
2023-05-23T00:46:52.837Z,16.38
2023-05-23T00:49:20.811Z,16.38
2023-05-23T00:51:50.053Z,16.36
2023-05-23T00:54:29.213Z,16.36
2023-05-23T00:56:57.041Z,16.34
2023-05-23T00:59:25.170Z,16.33
2023-05-23T01:01:53.182Z,16.31
2023-05-23T01:04:20.823Z,16.29
2023-05-23T01:06:49.579Z,16.26
2023-05-23T01:09:17.306Z,16.24
2023-05-23T01:12:13.148Z,16.24
2023-05-23T01:15:03.610Z,16.24
2023-05-23T01:17:37.419Z,16.23
2023-05-23T01:20:10.256Z,16.21
2023-05-23T01:23:02.691Z,16.17
2023-05-23T01:25:50.430Z,16.16
2023-05-23T01:28:20.612Z,16.16
2023-05-23T01:30:49.027Z,16.16
2023-05-23T01:33:17.673Z,16.14
2023-05-23T01:35:45.294Z,16.13
2023-05-23T01:38:12.878Z,16.14
2023-05-23T01:40:40.485Z,16.15
2023-05-23T01:43:10.657Z,16.16
2023-05-23T01:45:38.416Z,16.12
2023-05-23T01:48:06.508Z,16.13
2023-05-23T01:50:34.251Z,16.19
2023-05-23T01:53:01.892Z,16.18
2023-05-23T01:55:29.569Z,16.15
2023-05-23T01:57:57.341Z,16.16
2023-05-23T02:00:25.253Z,16.14
2023-05-23T02:02:53.194Z,16.16
2023-05-23T02:05:20.988Z,16.17
2023-05-23T02:07:48.695Z,16.22
2023-05-23T02:10:19.099Z,16.24
2023-05-23T02:12:46.718Z,16.26
2023-05-23T02:15:14.335Z,16.28
2023-05-23T02:17:43.304Z,16.30
2023-05-23T02:20:11.526Z,16.31
2023-05-23T02:22:39.102Z,16.32
2023-05-23T02:25:07.690Z,16.32
2023-05-23T02:27:35.449Z,16.33
2023-05-23T02:30:03.207Z,16.32
2023-05-23T02:32:30.794Z,16.33
2023-05-23T02:34:58.448Z,16.34
2023-05-23T02:37:26.001Z,16.34
2023-05-23T02:39:54.118Z,16.34
2023-05-23T02:42:22.543Z,16.36
2023-05-23T02:44:50.629Z,16.37
2023-05-23T02:47:18.798Z,16.36
2023-05-23T02:49:46.447Z,16.37
2023-05-23T02:52:14.259Z,16.38
2023-05-23T02:54:42.058Z,16.45
2023-05-23T02:57:10.724Z,16.51
2023-05-23T02:59:39.673Z,16.54
2023-05-23T03:02:07.615Z,16.55
2023-05-23T03:04:35.244Z,16.55
2023-05-23T03:07:05.405Z,16.57
2023-05-23T03:09:35.593Z,16.56
2023-05-23T03:12:04.901Z,16.58
2023-05-23T03:14:32.858Z,16.60
2023-05-23T03:17:00.767Z,16.64
2023-05-23T03:19:31.600Z,16.66
2023-05-23T03:22:00.195Z,16.70
2023-05-23T03:24:27.769Z,16.75
2023-05-23T03:26:55.331Z,16.79
2023-05-23T03:29:24.324Z,16.83
2023-05-23T03:31:51.827Z,16.86
2023-05-23T03:34:19.420Z,16.86
2023-05-23T03:36:46.954Z,16.88
2023-05-23T03:39:14.636Z,16.96
2023-05-23T03:41:42.218Z,17.03
2023-05-23T03:44:10.175Z,17.06
2023-05-23T03:46:39.634Z,17.12
2023-05-23T03:49:07.926Z,17.12
2023-05-23T03:51:36.347Z,17.17
2023-05-23T03:54:04.052Z,17.21
2023-05-23T03:56:31.769Z,17.24
2023-05-23T03:58:59.489Z,17.29
2023-05-23T04:01:27.972Z,17.35
2023-05-23T04:03:55.685Z,17.39
2023-05-23T04:06:24.791Z,17.41
2023-05-23T04:08:52.475Z,17.44
2023-05-23T04:11:20.177Z,17.48
2023-05-23T04:13:48.494Z,17.53
2023-05-23T04:16:17.338Z,17.55
2023-05-23T04:18:47.618Z,17.57
2023-05-23T04:21:15.529Z,17.61
2023-05-23T04:23:52.164Z,17.67
2023-05-23T04:26:20.669Z,17.67
2023-05-23T04:28:54.504Z,17.65
2023-05-23T04:31:23.190Z,17.66
2023-05-23T04:33:52.075Z,17.70
2023-05-23T04:36:20.649Z,17.73
2023-05-23T04:38:52.812Z,17.76
2023-05-23T04:41:23.911Z,17.75
2023-05-23T04:44:10.387Z,17.78
2023-05-23T04:46:46.604Z,17.82
2023-05-23T04:49:23.066Z,17.84
2023-05-23T04:51:52.771Z,17.88
2023-05-23T04:54:25.938Z,17.91
2023-05-23T04:56:54.948Z,17.93
2023-05-23T04:59:24.926Z,17.97
2023-05-23T05:01:53.047Z,18.00
2023-05-23T05:04:22.354Z,18.07
2023-05-23T05:06:51.022Z,18.04
2023-05-23T05:09:19.293Z,18.06
2023-05-23T05:11:47.426Z,18.10
2023-05-23T05:14:15.689Z,18.12
2023-05-23T05:16:44.420Z,18.18
2023-05-23T05:19:12.883Z,18.21
2023-05-23T05:21:41.047Z,18.28
2023-05-23T05:24:09.894Z,18.27
2023-05-23T05:26:37.581Z,18.30
2023-05-23T05:29:06.210Z,18.37
2023-05-23T05:31:36.218Z,18.45
2023-05-23T05:34:04.978Z,18.52
2023-05-23T05:36:33.698Z,18.61
2023-05-23T05:39:02.229Z,18.69
2023-05-23T05:41:29.796Z,18.69
2023-05-23T05:43:57.399Z,18.67
2023-05-23T05:46:25.574Z,18.68
2023-05-23T05:48:53.898Z,18.67
2023-05-23T05:51:22.527Z,18.66
2023-05-23T05:53:50.181Z,18.63
2023-05-23T05:56:17.971Z,18.57
2023-05-23T05:58:45.966Z,18.50
2023-05-23T06:01:16.434Z,18.47
2023-05-23T06:03:45.230Z,18.48
2023-05-23T06:06:16.452Z,18.46
2023-05-23T06:08:44.145Z,18.45
2023-05-23T06:11:15.200Z,18.45
2023-05-23T06:13:43.008Z,18.47
2023-05-23T06:16:11.194Z,18.52
2023-05-23T06:18:42.468Z,18.52
2023-05-23T06:21:10.923Z,18.50
2023-05-23T06:23:44.767Z,18.46
2023-05-23T06:26:12.368Z,18.47
2023-05-23T06:28:40.359Z,18.52
2023-05-23T06:31:10.477Z,18.59
2023-05-23T06:33:38.508Z,18.63
2023-05-23T06:36:06.519Z,18.69
2023-05-23T06:38:34.037Z,18.73
2023-05-23T06:41:02.548Z,18.81
2023-05-23T06:43:30.962Z,18.92
2023-05-23T06:46:14.218Z,19.03
2023-05-23T06:48:42.470Z,19.12
2023-05-23T06:51:11.446Z,19.19
2023-05-23T06:53:39.480Z,19.26
2023-05-23T06:56:07.724Z,19.37
2023-05-23T06:58:42.057Z,19.49
2023-05-23T07:01:11.170Z,19.57
2023-05-23T07:03:46.190Z,19.59
2023-05-23T07:06:14.390Z,19.59
2023-05-23T07:08:42.554Z,19.61
2023-05-23T07:11:10.616Z,19.63
2023-05-23T07:13:40.562Z,19.67
2023-05-23T07:16:10.644Z,19.74
2023-05-23T07:18:43.613Z,19.83
2023-05-23T07:21:11.298Z,19.93
2023-05-23T07:23:41.263Z,20.05
2023-05-23T07:26:12.746Z,20.15
2023-05-23T07:28:58.765Z,20.26
2023-05-23T07:31:26.895Z,20.34
2023-05-23T07:33:57.076Z,20.41
2023-05-23T07:36:42.609Z,20.51
2023-05-23T07:39:11.726Z,20.58
2023-05-23T07:41:40.191Z,20.62
2023-05-23T07:44:07.819Z,20.65
2023-05-23T07:46:36.495Z,20.71
2023-05-23T07:49:04.477Z,20.82
2023-05-23T07:51:32.765Z,20.94
2023-05-23T07:54:00.395Z,21.08
2023-05-23T07:56:28.254Z,21.27
2023-05-23T07:58:58.358Z,21.43
2023-05-23T08:01:29.081Z,21.61
2023-05-23T08:03:56.784Z,21.77
2023-05-23T08:06:30.168Z,21.97
2023-05-23T08:08:59.832Z,22.15
2023-05-23T08:11:30.470Z,22.26
2023-05-23T08:14:01.372Z,22.30
2023-05-23T08:16:38.441Z,22.37
2023-05-23T08:19:13.701Z,22.43
2023-05-23T08:21:41.975Z,22.49
2023-05-23T08:24:09.690Z,22.56
2023-05-23T08:26:37.776Z,22.63
2023-05-23T08:29:06.583Z,22.76
2023-05-23T08:31:37.193Z,22.89
2023-05-23T08:34:05.528Z,22.96
2023-05-23T08:36:37.564Z,22.95
2023-05-23T08:39:07.774Z,22.88
2023-05-23T08:41:39.969Z,22.96
2023-05-23T08:44:10.950Z,23.14
2023-05-23T08:46:46.587Z,23.36
2023-05-23T08:49:20.720Z,23.53
2023-05-23T08:51:48.321Z,23.65
2023-05-23T08:54:22.424Z,23.69
2023-05-23T08:56:50.514Z,23.67
2023-05-23T08:59:18.509Z,23.59
2023-05-23T09:01:46.417Z,23.56
2023-05-23T09:04:14.825Z,23.48
2023-05-23T09:06:56.180Z,23.41
2023-05-23T09:09:24.094Z,23.44
2023-05-23T09:11:52.216Z,23.52
2023-05-23T09:14:20.374Z,23.57
2023-05-23T09:16:49.471Z,23.56
2023-05-23T09:19:18.763Z,23.48
2023-05-23T09:21:51.287Z,23.45
2023-05-23T09:24:36.256Z,23.59
2023-05-23T09:27:07.783Z,23.73
2023-05-23T09:29:40.051Z,23.77
2023-05-23T09:32:11.955Z,23.83
2023-05-23T09:35:04.387Z,23.92
2023-05-23T09:37:36.508Z,24.00
2023-05-23T09:40:10.735Z,24.06
2023-05-23T09:42:45.914Z,24.12
2023-05-23T09:45:14.036Z,24.15
2023-05-23T09:47:52.222Z,24.09
2023-05-23T09:50:21.101Z,24.10
2023-05-23T09:52:49.461Z,24.10
2023-05-23T09:55:17.212Z,24.07
2023-05-23T09:57:45.893Z,24.04
2023-05-23T10:00:17.601Z,23.96
2023-05-23T10:03:13.301Z,23.94
2023-05-23T10:05:48.176Z,23.98
2023-05-23T10:08:30.159Z,23.99
2023-05-23T10:10:57.846Z,24.07
2023-05-23T10:13:29.052Z,24.04
2023-05-23T10:16:38.178Z,23.96
2023-05-23T10:19:26.233Z,24.05
2023-05-23T10:22:02.906Z,24.19
2023-05-23T10:24:30.656Z,24.29
2023-05-23T10:26:58.510Z,24.33
2023-05-23T10:29:26.587Z,24.41
2023-05-23T10:31:54.150Z,24.48
2023-05-23T10:34:40.778Z,24.46
2023-05-23T10:37:08.635Z,24.44
2023-05-23T10:39:54.923Z,24.43
2023-05-23T10:42:22.495Z,24.46
2023-05-23T10:44:50.246Z,24.43
2023-05-23T10:47:26.839Z,24.46
2023-05-23T10:49:55.701Z,24.61
2023-05-23T10:52:26.641Z,24.74
2023-05-23T10:54:54.893Z,24.78
2023-05-23T10:57:23.616Z,24.80
2023-05-23T10:59:51.737Z,24.83
2023-05-23T11:02:20.466Z,24.92
2023-05-23T11:04:48.806Z,25.05
2023-05-23T11:07:30.237Z,25.20
2023-05-23T11:10:24.268Z,25.34
2023-05-23T11:12:51.901Z,25.49
2023-05-23T11:15:22.537Z,25.62
2023-05-23T11:17:54.613Z,25.72
2023-05-23T11:20:26.636Z,25.80
2023-05-23T11:23:01.815Z,25.87
2023-05-23T11:25:41.251Z,25.90
2023-05-23T11:28:09.567Z,25.93
2023-05-23T11:30:37.745Z,25.96
2023-05-23T11:33:10.992Z,26.01
2023-05-23T11:35:38.552Z,26.07
2023-05-23T11:38:07.425Z,26.08
2023-05-23T11:40:41.746Z,26.09
2023-05-23T11:43:12.323Z,26.17
2023-05-23T11:45:40.049Z,26.28
2023-05-23T11:48:08.421Z,26.36
2023-05-23T11:50:49.498Z,26.40
2023-05-23T11:53:19.346Z,26.41
2023-05-23T11:55:55.490Z,26.50
2023-05-23T11:58:28.303Z,26.58
2023-05-23T12:01:04.425Z,26.66
2023-05-23T12:03:32.625Z,26.77
2023-05-23T12:06:01.099Z,26.85
2023-05-23T12:08:28.657Z,26.96
2023-05-23T12:10:59.916Z,27.10
2023-05-23T12:13:30.625Z,27.26
2023-05-23T12:16:01.531Z,27.39
2023-05-23T12:18:31.064Z,27.54
2023-05-23T12:21:10.688Z,27.65
2023-05-23T12:23:39.822Z,27.75
2023-05-23T12:26:07.847Z,27.87
2023-05-23T12:28:39.433Z,28.06
2023-05-23T12:31:16.757Z,28.29
2023-05-23T12:33:45.509Z,28.56
2023-05-23T12:36:13.184Z,28.79
2023-05-23T12:38:41.133Z,28.98
2023-05-23T12:41:13.476Z,29.14
2023-05-23T12:43:41.406Z,29.33
2023-05-23T12:46:09.194Z,29.53
2023-05-23T12:48:37.066Z,29.69
2023-05-23T12:51:05.144Z,29.67
2023-05-23T12:53:32.744Z,29.49
2023-05-23T12:56:00.750Z,29.17
2023-05-23T12:58:31.113Z,28.88
2023-05-23T13:00:59.318Z,28.50
2023-05-23T13:03:27.037Z,28.34
2023-05-23T13:05:54.711Z,28.40
2023-05-23T13:08:22.806Z,28.60
2023-05-23T13:10:50.549Z,28.80
2023-05-23T13:13:18.167Z,28.75
2023-05-23T13:15:47.291Z,28.62
2023-05-23T13:18:15.872Z,28.45
2023-05-23T13:20:43.783Z,28.42
2023-05-23T13:23:11.474Z,28.67
2023-05-23T13:25:39.458Z,28.90
2023-05-23T13:28:07.173Z,29.14
2023-05-23T13:30:34.791Z,29.47
2023-05-23T13:33:02.647Z,29.73
2023-05-23T13:35:30.430Z,29.94
2023-05-23T13:37:58.102Z,30.06
2023-05-23T13:40:25.940Z,30.02
2023-05-23T13:42:53.567Z,29.94
2023-05-23T13:45:23.226Z,30.00
2023-05-23T13:47:51.215Z,30.18
2023-05-23T13:50:19.633Z,30.29
2023-05-23T13:52:49.593Z,30.39
2023-05-23T13:55:19.039Z,30.65
2023-05-23T13:57:47.821Z,30.96
2023-05-23T14:00:16.512Z,31.14
2023-05-23T14:02:44.211Z,30.93
2023-05-23T14:05:11.908Z,30.71
2023-05-23T14:07:39.646Z,30.70
2023-05-23T14:10:09.443Z,30.87
2023-05-23T14:12:37.997Z,31.22
2023-05-23T14:15:05.999Z,31.42
2023-05-23T14:17:33.661Z,31.59
2023-05-23T14:20:01.380Z,31.93
2023-05-23T14:22:29.014Z,32.28
2023-05-23T14:24:57.641Z,32.22
2023-05-23T14:27:25.565Z,31.82
2023-05-23T14:29:53.183Z,31.17
2023-05-23T14:32:21.165Z,30.31
2023-05-23T14:34:48.843Z,29.50
2023-05-23T14:37:16.470Z,29.12
2023-05-23T14:39:44.156Z,29.07
2023-05-23T14:42:11.976Z,29.31
2023-05-23T14:44:39.794Z,29.55
2023-05-23T14:47:07.419Z,29.58
2023-05-23T14:49:35.156Z,29.42
2023-05-23T14:52:02.827Z,29.16
2023-05-23T14:54:30.446Z,28.80
2023-05-23T14:56:58.188Z,28.38
2023-05-23T14:59:25.944Z,28.07
2023-05-23T15:01:53.685Z,27.81
2023-05-23T15:04:21.525Z,27.61
2023-05-23T15:06:50.878Z,27.41
2023-05-23T15:09:18.494Z,26.93
2023-05-23T15:11:47.251Z,26.38
2023-05-23T15:14:15.106Z,25.77
2023-05-23T15:16:44.704Z,25.16
2023-05-23T15:19:12.436Z,24.65
2023-05-23T15:21:46.386Z,24.19
2023-05-23T15:24:17.926Z,23.77
2023-05-23T15:26:45.709Z,23.44
2023-05-23T15:29:16.012Z,23.15
2023-05-23T15:31:45.223Z,22.92
2023-05-23T15:34:13.522Z,22.77
2023-05-23T15:36:41.393Z,22.66
2023-05-23T15:39:13.959Z,22.51
2023-05-23T15:41:41.698Z,22.35
2023-05-23T15:44:09.652Z,22.19
2023-05-23T15:46:37.720Z,21.99
2023-05-23T15:49:13.739Z,21.79
2023-05-23T15:51:54.075Z,21.64
2023-05-23T15:54:21.734Z,21.55
2023-05-23T15:56:49.547Z,21.50
2023-05-23T15:59:17.418Z,21.43
2023-05-23T16:01:45.130Z,21.34
2023-05-23T16:04:13.075Z,21.25
2023-05-23T16:06:40.783Z,21.18
2023-05-23T16:09:08.490Z,21.14
2023-05-23T16:11:36.298Z,21.12
2023-05-23T16:14:04.858Z,21.05
2023-05-23T16:16:33.061Z,20.96
2023-05-23T16:19:00.892Z,20.85
2023-05-23T16:21:28.739Z,20.72
2023-05-23T16:23:57.434Z,20.61
2023-05-23T16:26:27.152Z,20.52
2023-05-23T16:28:54.973Z,20.42
2023-05-23T16:31:26.934Z,20.32
2023-05-23T16:33:54.566Z,20.18
2023-05-23T16:36:23.650Z,20.02
2023-05-23T16:38:52.963Z,19.84
2023-05-23T16:41:22.389Z,19.71
2023-05-23T16:43:49.935Z,19.59
2023-05-23T16:46:20.311Z,19.44
2023-05-23T16:48:48.500Z,19.27
2023-05-23T16:51:16.449Z,19.11
2023-05-23T16:53:45.428Z,18.96
2023-05-23T16:56:13.296Z,18.84
2023-05-23T16:58:41.938Z,18.74
2023-05-23T17:01:09.727Z,18.68
2023-05-23T17:03:37.726Z,18.64
2023-05-23T17:06:05.920Z,18.58
2023-05-23T17:08:33.533Z,18.54
2023-05-23T17:11:01.298Z,18.49
2023-05-23T17:13:28.970Z,18.44
2023-05-23T17:15:56.800Z,18.37
2023-05-23T17:18:24.528Z,18.32
2023-05-23T17:20:52.132Z,18.29
2023-05-23T17:23:19.866Z,18.28
2023-05-23T17:25:47.718Z,18.26
2023-05-23T17:28:15.274Z,18.21
2023-05-23T17:30:42.993Z,18.16
2023-05-23T17:33:13.405Z,18.14
2023-05-23T17:35:41.290Z,18.13
2023-05-23T17:38:09.142Z,18.11
2023-05-23T17:40:36.795Z,18.09
2023-05-23T17:43:04.459Z,18.10
2023-05-23T17:45:32.218Z,18.11
2023-05-23T17:48:03.631Z,18.10
2023-05-23T17:50:31.744Z,18.09
2023-05-23T17:52:59.551Z,18.09
2023-05-23T17:55:27.857Z,18.05
2023-05-23T17:57:55.566Z,17.99
2023-05-23T18:00:23.208Z,17.95
2023-05-23T18:02:51.983Z,17.90
2023-05-23T18:05:20.945Z,17.78
2023-05-23T18:07:48.654Z,17.71
2023-05-23T18:10:17.070Z,17.67
2023-05-23T18:12:44.831Z,17.64
2023-05-23T18:15:13.527Z,17.61
2023-05-23T18:17:41.828Z,17.56
2023-05-23T18:20:09.910Z,17.51
2023-05-23T18:22:37.669Z,17.51
2023-05-23T18:25:06.974Z,17.52
2023-05-23T18:27:34.623Z,17.53
2023-05-23T18:30:02.531Z,17.52
2023-05-23T18:32:31.572Z,17.50
2023-05-23T18:34:59.163Z,17.46
2023-05-23T18:37:27.188Z,17.41
2023-05-23T18:39:58.389Z,17.37
2023-05-23T18:42:26.036Z,17.33
2023-05-23T18:44:53.667Z,17.27
2023-05-23T18:47:21.722Z,17.21
2023-05-23T18:49:49.942Z,17.17
2023-05-23T18:52:17.597Z,17.16
2023-05-23T18:54:45.261Z,17.15
2023-05-23T18:57:12.952Z,17.13
2023-05-23T18:59:40.640Z,17.09
2023-05-23T19:02:08.424Z,17.05
2023-05-23T19:04:36.241Z,17.02
2023-05-23T19:07:03.883Z,16.99
2023-05-23T19:09:31.505Z,16.97
2023-05-23T19:11:59.437Z,16.96
2023-05-23T19:14:27.068Z,16.96
2023-05-23T19:16:55.268Z,16.94
2023-05-23T19:19:23.043Z,16.94
2023-05-23T19:21:51.238Z,16.93
2023-05-23T19:24:18.918Z,16.94
2023-05-23T19:26:46.749Z,16.94
2023-05-23T19:29:14.373Z,16.93
2023-05-23T19:31:42.441Z,16.91
2023-05-23T19:34:10.314Z,16.88
2023-05-23T19:36:38.188Z,16.87
2023-05-23T19:39:05.835Z,16.85
2023-05-23T19:41:33.436Z,16.83
2023-05-23T19:44:01.993Z,16.81
2023-05-23T19:46:29.794Z,16.81
2023-05-23T19:49:01.061Z,16.82
2023-05-23T19:51:29.259Z,16.82
2023-05-23T19:53:57.085Z,16.81
2023-05-23T19:56:26.008Z,16.78
2023-05-23T19:58:53.953Z,16.75
2023-05-23T20:01:22.124Z,16.77
2023-05-23T20:03:50.559Z,16.76
2023-05-23T20:06:18.900Z,16.71
2023-05-23T20:08:47.850Z,16.70
2023-05-23T20:11:15.611Z,16.72
2023-05-23T20:13:43.114Z,16.71
2023-05-23T20:16:10.986Z,16.70
2023-05-23T20:18:38.620Z,16.67
2023-05-23T20:21:06.778Z,16.64
2023-05-23T20:23:34.386Z,16.60
2023-05-23T20:26:02.100Z,16.56
2023-05-23T20:28:30.131Z,16.55
2023-05-23T20:30:58.488Z,16.53
2023-05-23T20:33:26.289Z,16.52
2023-05-23T20:35:54.259Z,16.50
2023-05-23T20:38:21.841Z,16.50
2023-05-23T20:40:52.106Z,16.49
2023-05-23T20:43:20.633Z,16.50
2023-05-23T20:45:48.646Z,16.52
2023-05-23T20:48:17.702Z,16.53
2023-05-23T20:50:45.783Z,16.54
2023-05-23T20:53:13.335Z,16.55
2023-05-23T20:55:41.151Z,16.54
2023-05-23T20:58:09.007Z,16.56
2023-05-23T21:00:36.599Z,16.55
2023-05-23T21:03:04.529Z,16.55
2023-05-23T21:05:32.183Z,16.54
2023-05-23T21:07:59.977Z,16.52
2023-05-23T21:10:27.618Z,16.50
2023-05-23T21:12:55.723Z,16.49
2023-05-23T21:15:23.295Z,16.48
2023-05-23T21:17:51.699Z,16.47
2023-05-23T21:20:22.465Z,16.46
2023-05-23T21:22:50.129Z,16.46
2023-05-23T21:25:17.914Z,16.45
2023-05-23T21:27:45.745Z,16.45
2023-05-23T21:30:15.591Z,16.43
2023-05-23T21:32:43.839Z,16.43
2023-05-23T21:35:11.591Z,16.42
2023-05-23T21:37:39.128Z,16.42
2023-05-23T21:40:07.394Z,16.43
2023-05-23T21:42:34.988Z,16.42
2023-05-23T21:45:04.837Z,16.41
2023-05-23T21:47:32.487Z,16.42
2023-05-23T21:50:00.139Z,16.42
2023-05-23T21:52:27.891Z,16.42
2023-05-23T21:54:55.467Z,16.39
2023-05-23T21:57:23.022Z,16.37
2023-05-23T21:59:50.563Z,16.35
2023-05-23T22:02:18.488Z,16.34
2023-05-23T22:04:46.364Z,16.32
2023-05-23T22:07:14.057Z,16.30
2023-05-23T22:09:41.777Z,16.30
2023-05-23T22:12:09.412Z,16.30
2023-05-23T22:14:37.149Z,16.30
2023-05-23T22:17:04.875Z,16.31
2023-05-23T22:19:32.523Z,16.29
2023-05-23T22:22:00.531Z,16.26
2023-05-23T22:24:29.398Z,16.24
2023-05-23T22:26:58.640Z,16.22
2023-05-23T22:29:26.497Z,16.21
2023-05-23T22:31:54.165Z,16.18
2023-05-23T22:34:21.772Z,16.15
2023-05-23T22:36:49.595Z,16.12
2023-05-23T22:39:17.439Z,16.08
2023-05-23T22:41:45.056Z,16.03
2023-05-23T22:44:12.566Z,15.96
2023-05-23T22:46:42.970Z,15.88
2023-05-23T22:49:10.547Z,15.82
2023-05-23T22:51:38.164Z,15.79
2023-05-23T22:54:05.747Z,15.77
2023-05-23T22:56:33.515Z,15.74
2023-05-23T22:59:01.252Z,15.67
2023-05-23T23:01:28.902Z,15.60
2023-05-23T23:03:56.594Z,15.55
2023-05-23T23:06:24.137Z,15.56
2023-05-23T23:08:52.004Z,15.56
2023-05-23T23:11:19.784Z,15.52
2023-05-23T23:13:47.320Z,15.47
2023-05-23T23:16:14.847Z,15.47
2023-05-23T23:18:42.432Z,15.42
2023-05-23T23:21:10.029Z,15.36
2023-05-23T23:23:38.538Z,15.34
2023-05-23T23:26:06.128Z,15.31
2023-05-23T23:28:33.930Z,15.31
2023-05-23T23:31:01.647Z,15.29
2023-05-23T23:33:29.251Z,15.29
2023-05-23T23:35:57.990Z,15.27
2023-05-23T23:38:25.994Z,15.29
2023-05-23T23:40:54.385Z,15.28
2023-05-23T23:43:22.295Z,15.31
2023-05-23T23:45:49.864Z,15.32
2023-05-23T23:48:17.540Z,15.34
2023-05-23T23:50:45.212Z,15.38
2023-05-23T23:53:12.849Z,15.43
2023-05-23T23:55:40.488Z,15.50
2023-05-23T23:58:08.020Z,15.55
